Time;durP1;ratioP1;P1;durP2;ratioP2;P2;SDS_P1;SDS_P2;PMS_P1;PMS_P2;Temp;Humidity;BMP_temperature;BMP_pressure;BME280_temperature;BME280_humidity;BME280_pressure;Samples;Min_cycle;Max_cycle;Signal;HPM_P1;HPM_P2
2022/04/07 00:02:07;;;;;;;7.50;2.78;;;9.60;99.90;;;;;;5099168;27;20047;-79
2022/04/07 00:04:33;;;;;;;10.15;3.03;;;9.70;99.90;;;;;;5082538;27;20046;-75
2022/04/07 00:06:59;;;;;;;6.75;2.55;;;9.50;99.90;;;;;;5082580;27;20038;-75
2022/04/07 00:09:24;;;;;;;9.25;2.67;;;9.50;99.90;;;;;;5098527;27;20053;-75
2022/04/07 00:11:50;;;;;;;9.05;2.60;;;9.50;99.90;;;;;;5099180;27;20475;-75
2022/04/07 00:14:16;;;;;;;10.25;2.45;;;9.50;99.90;;;;;;5098881;27;20035;-75
2022/04/07 00:16:41;;;;;;;9.02;2.03;;;9.40;99.90;;;;;;5065497;27;20039;-74
2022/04/07 00:19:07;;;;;;;6.93;2.20;;;9.50;99.90;;;;;;5099021;27;20047;-72
2022/04/07 00:21:35;;;;;;;5.22;1.90;;;9.40;99.90;;;;;;5098574;27;20066;-74
2022/04/07 00:24:03;;;;;;;7.47;2.08;;;9.40;99.90;;;;;;5116246;27;20042;-73
2022/04/07 00:26:29;;;;;;;9.73;2.05;;;9.40;99.90;;;;;;5098772;27;20427;-73
2022/04/07 00:28:55;;;;;;;7.15;1.92;;;9.40;99.90;;;;;;5082080;27;20498;-74
2022/04/07 00:31:20;;;;;;;10.70;2.20;;;9.30;99.90;;;;;;5098443;27;20075;-74
2022/04/07 00:33:46;;;;;;;12.13;2.75;;;9.40;99.90;;;;;;5115448;27;20035;-74
2022/04/07 00:36:12;;;;;;;10.25;2.05;;;9.40;99.90;;;;;;5081917;27;20042;-75
2022/04/07 00:38:38;;;;;;;8.65;2.28;;;9.30;99.90;;;;;;5115548;27;20043;-74
2022/04/07 00:41:03;;;;;;;9.57;2.20;;;9.30;99.90;;;;;;5115809;27;20074;-75
2022/04/07 00:43:34;;;;;;;9.52;2.53;;;9.30;99.90;;;;;;5098206;27;20039;-74
2022/04/07 00:46:00;;;;;;;10.35;2.67;;;9.30;99.90;;;;;;5098746;27;20039;-75
2022/04/07 00:48:26;;;;;;;9.82;3.13;;;9.40;99.90;;;;;;5098202;27;20117;-74
2022/04/07 00:50:55;;;;;;;7.70;2.33;;;9.40;99.90;;;;;;5098782;27;20386;-74
2022/04/07 00:53:22;;;;;;;10.95;2.63;;;9.30;99.90;;;;;;5081412;28;20113;-74
2022/04/07 00:55:50;;;;;;;7.97;2.28;;;9.30;99.90;;;;;;5094711;28;20395;-74
2022/04/07 00:58:17;;;;;;;11.00;2.58;;;9.30;99.90;;;;;;5078086;28;20540;-77
2022/04/07 01:00:42;;;;;;;10.35;2.55;;;9.40;99.90;;;;;;5078394;28;20367;-74
2022/04/07 01:03:09;;;;;;;8.70;2.50;;;9.30;99.90;;;;;;5094633;28;20039;-74
2022/04/07 01:05:40;;;;;;;9.23;2.67;;;9.30;99.90;;;;;;5063845;28;20081;-74
2022/04/07 01:08:07;;;;;;;9.02;2.90;;;9.40;99.90;;;;;;5111779;28;20047;-75
2022/04/07 01:10:33;;;;;;;10.70;2.25;;;9.30;99.90;;;;;;5111098;28;20047;-73
2022/04/07 01:12:58;;;;;;;11.45;2.53;;;9.30;99.90;;;;;;5094721;28;20040;-74
2022/04/07 01:15:24;;;;;;;11.90;2.85;;;9.30;99.90;;;;;;5077791;28;20449;-73
2022/04/07 01:17:50;;;;;;;8.45;2.70;;;9.30;99.90;;;;;;5095039;28;20104;-73
2022/04/07 01:20:15;;;;;;;9.35;2.22;;;9.30;99.90;;;;;;5094969;28;20356;-73
2022/04/07 01:22:41;;;;;;;14.10;2.97;;;9.30;99.90;;;;;;5094302;28;20039;-73
2022/04/07 01:25:08;;;;;;;11.07;2.88;;;9.30;99.90;;;;;;5061187;28;20502;-73
2022/04/07 01:27:34;;;;;;;14.75;3.00;;;9.20;99.90;;;;;;5077438;28;20471;-73
2022/04/07 01:30:10;;;;;;;10.45;3.38;;;9.20;99.90;;;;;;5061443;28;20050;-73
2022/04/07 01:32:44;;;;;;;8.70;2.90;;;9.20;99.90;;;;;;5077828;28;20078;-74
2022/04/07 01:35:10;;;;;;;11.00;3.30;;;9.20;99.90;;;;;;5077921;28;20134;-73
2022/04/07 01:37:36;;;;;;;13.50;3.70;;;9.20;99.90;;;;;;5077177;28;20059;-74
2022/04/07 01:40:02;;;;;;;9.27;3.38;;;9.20;99.90;;;;;;5061557;28;20074;-74
2022/04/07 01:42:27;;;;;;;9.48;3.22;;;9.20;99.90;;;;;;5094204;28;20043;-73
2022/04/07 01:44:54;;;;;;;8.68;3.35;;;9.10;99.90;;;;;;5094687;28;20431;-74
2022/04/07 01:47:20;;;;;;;8.75;3.17;;;9.10;99.90;;;;;;5060616;28;20058;-73
2022/04/07 01:49:49;;;;;;;10.57;4.25;;;9.10;99.90;;;;;;5077297;28;20089;-74
2022/04/07 01:52:15;;;;;;;12.90;4.13;;;9.10;99.90;;;;;;5078126;28;20039;-73
2022/04/07 01:54:43;;;;;;;14.32;4.22;;;9.20;99.90;;;;;;5078142;27;20044;-74
2022/04/07 01:57:10;;;;;;;13.32;4.40;;;9.10;99.90;;;;;;5098543;28;20069;-74
2022/04/07 01:59:36;;;;;;;15.50;4.60;;;9.10;99.90;;;;;;5080681;28;20054;-74
2022/04/07 02:02:01;;;;;;;11.63;3.80;;;9.10;99.90;;;;;;5097902;28;20096;-77
2022/04/07 02:04:27;;;;;;;16.48;3.92;;;9.10;99.90;;;;;;5080623;28;20047;-74
2022/04/07 02:06:53;;;;;;;12.25;3.72;;;9.00;99.90;;;;;;5114960;28;20130;-74
2022/04/07 02:09:18;;;;;;;13.88;3.70;;;9.10;99.90;;;;;;5114579;28;20125;-74
2022/04/07 02:11:44;;;;;;;16.52;3.63;;;9.10;99.90;;;;;;5097193;28;20043;-74
2022/04/07 02:14:10;;;;;;;13.35;3.30;;;9.10;99.90;;;;;;5114744;28;20053;-74
2022/04/07 02:16:36;;;;;;;13.27;3.70;;;9.10;99.90;;;;;;5134571;27;20125;-74
2022/04/07 02:19:01;;;;;;;15.05;3.92;;;9.10;99.90;;;;;;5101574;27;20035;-75
2022/04/07 02:21:27;;;;;;;17.50;3.42;;;9.10;99.90;;;;;;5083970;27;20042;-75
2022/04/07 02:23:53;;;;;;;19.25;3.58;;;9.10;99.90;;;;;;5084431;27;20035;-74
2022/04/07 02:26:19;;;;;;;15.80;4.07;;;9.10;99.90;;;;;;5101214;27;20183;-75
2022/04/07 02:28:45;;;;;;;16.05;3.53;;;9.10;99.90;;;;;;5100796;27;20047;-74
2022/04/07 02:31:14;;;;;;;23.70;3.97;;;9.10;99.90;;;;;;5118151;27;20047;-74
2022/04/07 02:33:39;;;;;;;17.90;3.92;;;9.10;99.90;;;;;;5101038;27;20035;-74
2022/04/07 02:36:06;;;;;;;16.50;3.63;;;9.10;99.90;;;;;;5084315;27;20042;-74
2022/04/07 02:38:31;;;;;;;17.35;3.15;;;9.10;99.90;;;;;;5117727;27;20100;-74
2022/04/07 02:40:57;;;;;;;15.38;4.13;;;9.10;99.90;;;;;;5100822;27;20417;-74
2022/04/07 02:43:23;;;;;;;14.63;4.45;;;9.10;99.90;;;;;;5083967;27;20046;-73
2022/04/07 02:45:48;;;;;;;14.02;3.78;;;9.20;99.90;;;;;;5100418;27;20074;-73
2022/04/07 02:48:14;;;;;;;16.85;4.28;;;9.10;99.90;;;;;;5084029;27;20043;-73
2022/04/07 02:50:40;;;;;;;13.45;3.50;;;9.20;99.90;;;;;;5117433;27;20039;-74
2022/04/07 02:53:05;;;;;;;18.40;4.18;;;9.10;99.90;;;;;;5083877;27;20035;-74
2022/04/07 02:55:31;;;;;;;13.18;4.10;;;9.00;99.90;;;;;;5080078;28;20055;-79
2022/04/07 02:58:00;;;;;;;13.60;3.88;;;9.10;99.90;;;;;;5097351;28;20051;-74
2022/04/07 03:00:25;;;;;;;13.82;4.10;;;9.10;99.90;;;;;;5097027;28;20035;-74
2022/04/07 03:02:51;;;;;;;14.30;3.92;;;9.10;99.90;;;;;;5096757;28;20371;-74
2022/04/07 03:05:17;;;;;;;15.25;5.10;;;9.10;99.90;;;;;;5080243;28;20040;-74
2022/04/07 03:07:42;;;;;;;17.70;4.22;;;9.10;99.90;;;;;;5096369;28;20208;-74
2022/04/07 03:10:08;;;;;;;11.45;3.50;;;9.10;99.90;;;;;;5080102;28;20050;-74
2022/04/07 03:12:34;;;;;;;14.82;4.25;;;9.10;99.90;;;;;;5112872;28;20084;-74
2022/04/07 03:15:00;;;;;;;18.98;3.85;;;9.10;99.90;;;;;;5063456;28;20039;-73
2022/04/07 03:17:26;;;;;;;15.50;3.75;;;9.10;99.90;;;;;;5113588;28;20047;-74
2022/04/07 03:19:51;;;;;;;12.50;3.47;;;9.20;99.90;;;;;;5114037;28;20035;-74
2022/04/07 03:22:18;;;;;;;11.95;3.53;;;9.10;99.90;;;;;;5096614;28;20085;-73
2022/04/07 03:24:45;;;;;;;14.63;3.85;;;9.10;99.90;;;;;;5114217;28;20051;-74
2022/04/07 03:27:11;;;;;;;13.07;3.80;;;9.10;99.90;;;;;;5113199;28;20047;-73
2022/04/07 03:29:36;;;;;;;11.52;3.30;;;9.10;99.90;;;;;;5062672;28;20534;-74
2022/04/07 03:32:04;;;;;;;12.80;3.65;;;9.10;99.90;;;;;;5113208;28;20039;-73
2022/04/07 03:34:29;;;;;;;10.52;3.47;;;9.00;99.90;;;;;;5079931;28;20081;-72
2022/04/07 03:36:55;;;;;;;12.35;3.60;;;9.10;99.90;;;;;;5112822;28;20118;-74
2022/04/07 03:39:21;;;;;;;12.82;3.30;;;9.10;99.90;;;;;;5113223;28;20071;-73
2022/04/07 03:41:47;;;;;;;10.52;3.20;;;9.00;99.90;;;;;;5112992;28;20043;-73
2022/04/07 03:44:12;;;;;;;11.38;2.97;;;9.00;99.90;;;;;;5096083;28;20367;-73
2022/04/07 03:46:38;;;;;;;13.85;3.70;;;9.10;99.90;;;;;;5096342;28;20036;-73
2022/04/07 03:49:04;;;;;;;12.38;3.10;;;9.10;99.90;;;;;;5079543;28;20051;-74
2022/04/07 03:51:29;;;;;;;14.85;4.25;;;9.10;99.90;;;;;;5113373;28;20050;-73
2022/04/07 03:53:55;;;;;;;14.52;3.47;;;9.10;99.90;;;;;;5113707;28;20491;-73
2022/04/07 03:56:21;;;;;;;18.48;3.38;;;9.10;99.90;;;;;;5095895;28;20176;-73
2022/04/07 03:58:46;;;;;;;15.32;3.10;;;9.10;99.90;;;;;;5095643;28;20044;-73
2022/04/07 04:01:13;;;;;;;13.50;3.20;;;9.10;99.90;;;;;;5096066;28;20051;-72
2022/04/07 04:03:38;;;;;;;15.32;3.70;;;9.10;99.90;;;;;;5113139;28;20437;-73
2022/04/07 04:06:04;;;;;;;15.57;3.47;;;9.10;99.90;;;;;;5095650;28;20043;-72
2022/04/07 04:08:30;;;;;;;16.65;3.58;;;9.20;99.90;;;;;;5079160;28;20035;-73
2022/04/07 04:10:55;;;;;;;21.42;3.95;;;9.10;99.90;;;;;;5095488;28;20043;-75
2022/04/07 04:13:22;;;;;;;16.67;3.83;;;9.10;99.90;;;;;;5112532;28;20036;-73
2022/04/07 04:15:48;;;;;;;19.63;4.35;;;9.10;99.90;;;;;;5112419;28;20050;-74
2022/04/07 04:18:13;;;;;;;18.00;4.35;;;9.10;99.90;;;;;;5112579;28;20040;-76
2022/04/07 04:20:39;;;;;;;19.70;3.95;;;9.10;99.90;;;;;;5095895;28;20471;-75
2022/04/07 04:23:05;;;;;;;21.40;4.57;;;9.10;99.90;;;;;;5078006;28;20047;-75
2022/04/07 04:25:30;;;;;;;22.17;4.20;;;9.00;99.90;;;;;;5112663;28;20047;-76
2022/04/07 04:27:56;;;;;;;17.98;4.32;;;9.00;99.90;;;;;;5113157;28;20047;-76
2022/04/07 04:30:22;;;;;;;26.85;5.20;;;9.00;99.90;;;;;;5113546;28;20066;-75
2022/04/07 04:32:48;;;;;;;21.23;4.30;;;9.00;99.90;;;;;;5111898;28;20043;-76
2022/04/07 04:35:14;;;;;;;17.33;4.20;;;9.00;99.90;;;;;;5078566;28;20039;-75
2022/04/07 04:37:40;;;;;;;21.15;4.80;;;9.00;99.90;;;;;;5095517;28;20459;-74
2022/04/07 04:40:06;;;;;;;24.67;4.82;;;9.00;99.90;;;;;;5094518;28;20689;-75
2022/04/07 04:42:31;;;;;;;16.10;4.00;;;9.00;99.90;;;;;;5095417;28;20043;-76
2022/04/07 04:44:57;;;;;;;18.52;4.40;;;8.90;99.90;;;;;;5111820;28;20039;-75
2022/04/07 04:47:23;;;;;;;25.23;4.63;;;8.90;99.90;;;;;;5111967;28;20083;-75
2022/04/07 04:49:48;;;;;;;20.17;4.40;;;8.90;99.90;;;;;;5094549;28;20124;-76
2022/04/07 04:52:14;;;;;;;22.05;5.15;;;8.90;99.90;;;;;;5111330;28;20050;-75
2022/04/07 04:54:40;;;;;;;21.25;4.97;;;9.00;99.90;;;;;;5112845;27;20489;-76
2022/04/07 04:57:06;;;;;;;22.30;4.47;;;8.90;99.90;;;;;;5114889;28;20062;-75
2022/04/07 04:59:32;;;;;;;20.13;4.10;;;8.90;99.90;;;;;;5098403;28;20477;-75
2022/04/07 05:01:57;;;;;;;19.05;3.75;;;8.90;99.90;;;;;;5097739;28;20112;-75
2022/04/07 05:04:23;;;;;;;17.92;3.63;;;8.90;99.90;;;;;;5115022;28;20074;-76
2022/04/07 05:06:49;;;;;;;24.20;4.20;;;8.90;99.90;;;;;;5080679;28;20051;-75
2022/04/07 05:09:16;;;;;;;24.30;4.60;;;8.80;99.90;;;;;;5115162;28;20096;-76
2022/04/07 05:11:41;;;;;;;20.27;4.18;;;8.80;99.90;;;;;;5115369;28;20047;-77
2022/04/07 05:14:07;;;;;;;23.90;4.97;;;8.80;99.90;;;;;;5114885;28;20050;-76
2022/04/07 05:16:33;;;;;;;20.48;4.00;;;8.70;99.90;;;;;;5098491;28;20458;-76
2022/04/07 05:18:59;;;;;;;16.38;4.18;;;8.70;99.90;;;;;;5133126;28;20051;-75
2022/04/07 05:21:24;;;;;;;15.75;3.67;;;8.80;99.90;;;;;;5098206;28;20046;-76
2022/04/07 05:23:50;;;;;;;16.80;2.50;;;8.70;99.90;;;;;;5098287;28;20051;-76
2022/04/07 05:26:16;;;;;;;13.18;2.60;;;8.60;99.90;;;;;;5097851;28;20095;-76
2022/04/07 05:28:42;;;;;;;13.38;1.52;;;8.60;99.90;;;;;;5115132;28;20046;-76
2022/04/07 05:31:08;;;;;;;10.57;1.30;;;8.40;99.90;;;;;;5114939;28;20374;-75
2022/04/07 05:33:33;;;;;;;5.80;1.10;;;8.20;99.90;;;;;;5097908;28;20035;-75
2022/04/07 05:36:01;;;;;;;5.30;1.00;;;7.90;99.90;;;;;;5064272;28;20046;-75
2022/04/07 05:38:26;;;;;;;3.85;1.17;;;7.70;99.90;;;;;;5097879;28;20043;-75
2022/04/07 05:40:53;;;;;;;6.22;1.20;;;7.50;99.90;;;;;;5115170;28;20046;-76
2022/04/07 05:43:19;;;;;;;6.13;1.40;;;7.40;99.90;;;;;;5081079;28;20039;-76
2022/04/07 05:45:46;;;;;;;6.75;1.30;;;7.40;99.90;;;;;;5133343;28;20039;-76
2022/04/07 05:48:12;;;;;;;7.88;1.70;;;7.30;99.90;;;;;;5080446;28;20043;-76
2022/04/07 05:50:39;;;;;;;7.25;1.42;;;7.20;99.90;;;;;;5098699;27;20096;-76
2022/04/07 05:53:06;;;;;;;9.57;1.52;;;7.20;99.90;;;;;;5118327;27;20089;-77
2022/04/07 05:55:33;;;;;;;9.07;1.70;;;7.20;99.90;;;;;;5083870;27;20053;-76
2022/04/07 05:58:03;;;;;;;8.02;1.17;;;7.20;99.90;;;;;;5101103;27;20059;-76
2022/04/07 06:00:28;;;;;;;8.03;1.33;;;7.20;99.90;;;;;;5101947;27;20102;-76
2022/04/07 06:02:54;;;;;;;9.57;1.55;;;7.10;99.90;;;;;;5136832;27;20039;-76
2022/04/07 06:05:20;;;;;;;7.50;1.10;;;7.10;99.90;;;;;;5118228;27;20042;-76
2022/04/07 06:07:46;;;;;;;7.65;1.20;;;7.10;99.90;;;;;;5101813;27;20463;-76
2022/04/07 06:10:12;;;;;;;8.77;1.23;;;7.00;99.90;;;;;;5101346;27;20085;-76
2022/04/07 06:12:40;;;;;;;6.78;1.10;;;7.00;99.90;;;;;;5101453;27;20506;-76
2022/04/07 06:15:06;;;;;;;10.15;1.27;;;6.90;99.90;;;;;;5117853;27;20103;-78
2022/04/07 06:17:36;;;;;;;9.40;1.10;;;7.00;99.90;;;;;;5118600;27;20039;-78
2022/04/07 06:20:02;;;;;;;5.95;1.08;;;6.90;99.90;;;;;;5118127;27;20103;-79
2022/04/07 06:22:34;;;;;;;9.90;1.45;;;6.90;99.90;;;;;;5070204;27;20375;-77
2022/04/07 06:25:00;;;;;;;4.60;1.20;;;6.80;99.90;;;;;;5118247;27;20077;-76
2022/04/07 06:27:36;;;;;;;6.45;1.15;;;6.90;99.90;;;;;;5136379;27;20082;-78
2022/04/07 06:30:06;;;;;;;6.43;1.13;;;6.80;99.90;;;;;;5117899;27;20117;-77
2022/04/07 06:32:32;;;;;;;5.90;1.00;;;6.70;99.90;;;;;;5136363;27;20039;-76
2022/04/07 06:34:58;;;;;;;3.35;1.02;;;6.70;99.90;;;;;;5101278;27;20042;-81
2022/04/07 06:37:24;;;;;;;6.53;1.00;;;6.70;99.90;;;;;;5100885;27;20098;-77
2022/04/07 06:39:49;;;;;;;2.08;0.68;;;6.70;99.90;;;;;;5136078;27;20039;-75
2022/04/07 06:42:15;;;;;;;5.38;1.25;;;6.70;99.90;;;;;;5100114;27;20051;-75
2022/04/07 06:44:41;;;;;;;3.35;0.60;;;6.60;99.90;;;;;;5136143;27;20467;-76
2022/04/07 06:47:07;;;;;;;5.32;1.00;;;6.70;99.90;;;;;;5100313;27;20135;-80
2022/04/07 06:49:32;;;;;;;3.53;0.90;;;6.70;99.90;;;;;;5117858;27;20039;-80
2022/04/07 06:52:01;;;;;;;3.03;0.80;;;6.70;99.90;;;;;;5100860;27;20042;-79
2022/04/07 06:54:26;;;;;;;2.40;0.73;;;6.70;99.90;;;;;;5083934;27;20039;-77
2022/04/07 06:56:52;;;;;;;1.75;0.50;;;6.70;99.90;;;;;;5117489;27;20042;-74
2022/04/07 06:59:18;;;;;;;3.15;0.65;;;6.70;99.90;;;;;;5100367;27;20046;-74
2022/04/07 07:01:44;;;;;;;2.72;0.60;;;6.70;99.90;;;;;;5100292;27;20471;-76
2022/04/07 07:04:09;;;;;;;4.60;0.70;;;6.70;99.90;;;;;;5117049;27;20050;-75
2022/04/07 07:06:35;;;;;;;5.93;0.95;;;6.80;99.90;;;;;;5066677;27;20035;-75
2022/04/07 07:09:00;;;;;;;2.53;0.50;;;6.80;99.90;;;;;;5135862;27;20051;-75
2022/04/07 07:11:26;;;;;;;1.77;0.60;;;6.80;99.90;;;;;;5083226;27;20040;-75
2022/04/07 07:13:52;;;;;;;2.78;0.60;;;6.80;99.90;;;;;;5117283;27;20039;-75
2022/04/07 07:16:17;;;;;;;3.03;0.95;;;6.80;99.90;;;;;;5117053;27;20467;-76
2022/04/07 07:18:43;;;;;;;2.33;0.70;;;6.90;99.90;;;;;;5135673;27;20039;-75
2022/04/07 07:21:09;;;;;;;2.60;0.82;;;6.80;99.90;;;;;;5099902;27;20352;-75
2022/04/07 07:23:34;;;;;;;2.38;0.65;;;6.90;99.90;;;;;;5100341;27;20106;-75
2022/04/07 07:26:00;;;;;;;2.28;0.63;;;6.90;99.90;;;;;;5135368;27;20114;-75
2022/04/07 07:28:26;;;;;;;3.72;0.63;;;7.00;99.90;;;;;;5099651;27;20039;-74
2022/04/07 07:30:51;;;;;;;1.85;0.52;;;6.90;99.90;;;;;;5135199;27;20053;-75
2022/04/07 07:33:17;;;;;;;4.60;0.77;;;6.90;99.90;;;;;;5116240;27;20435;-74
2022/04/07 07:35:45;;;;;;;4.18;1.00;;;7.10;99.90;;;;;;5099989;27;20127;-74
2022/04/07 07:38:11;;;;;;;3.55;0.70;;;7.00;99.90;;;;;;5116298;27;20043;-75
2022/04/07 07:40:36;;;;;;;2.33;0.80;;;7.00;99.90;;;;;;5116677;27;20050;-74
2022/04/07 07:43:02;;;;;;;4.68;0.90;;;7.00;99.90;;;;;;5116713;27;20375;-75
2022/04/07 07:45:29;;;;;;;5.60;0.85;;;7.00;99.90;;;;;;5115948;27;20452;-75
2022/04/07 07:47:55;;;;;;;3.20;0.68;;;7.00;99.90;;;;;;5134864;27;20066;-74
2022/04/07 07:50:21;;;;;;;4.15;0.90;;;7.10;99.90;;;;;;5134349;27;20047;-75
2022/04/07 07:52:47;;;;;;;2.80;0.98;;;7.10;99.90;;;;;;5116382;27;20116;-75
2022/04/07 07:55:13;;;;;;;2.88;0.77;;;7.10;99.90;;;;;;5115905;27;20511;-79
2022/04/07 07:57:39;;;;;;;4.28;0.77;;;7.20;99.90;;;;;;5099680;27;20043;-75
2022/04/07 08:00:07;;;;;;;3.45;0.80;;;7.10;99.90;;;;;;5116385;27;20039;-76
2022/04/07 08:02:36;;;;;;;3.38;1.00;;;7.10;99.90;;;;;;5116277;27;20046;-75
2022/04/07 08:05:02;;;;;;;8.05;1.00;;;7.20;99.90;;;;;;5066595;27;20146;-75
2022/04/07 08:07:28;;;;;;;5.32;0.95;;;7.20;99.90;;;;;;5099056;27;20092;-75
2022/04/07 08:09:56;;;;;;;4.18;0.80;;;7.30;99.90;;;;;;5099462;27;20382;-75
2022/04/07 08:12:26;;;;;;;3.95;0.82;;;7.40;99.90;;;;;;5115619;27;20104;-73
2022/04/07 08:14:52;;;;;;;2.95;0.80;;;7.30;99.90;;;;;;5065510;27;20088;-74
2022/04/07 08:17:23;;;;;;;6.32;0.80;;;7.30;99.90;;;;;;5083466;27;20046;-74
2022/04/07 08:19:49;;;;;;;4.57;0.80;;;7.30;99.90;;;;;;5065507;27;20427;-75
2022/04/07 08:22:14;;;;;;;5.85;0.80;;;7.30;99.90;;;;;;5116040;27;20039;-75
2022/04/07 08:24:40;;;;;;;4.70;1.00;;;7.40;99.90;;;;;;5115660;27;20462;-74
2022/04/07 08:27:06;;;;;;;3.08;0.82;;;7.40;99.90;;;;;;5115734;27;20038;-74
2022/04/07 08:29:32;;;;;;;5.55;1.08;;;7.50;99.90;;;;;;5081911;27;20122;-78
2022/04/07 08:31:58;;;;;;;5.45;1.20;;;7.60;99.90;;;;;;5082219;27;20054;-73
2022/04/07 08:34:25;;;;;;;4.03;1.10;;;7.60;99.90;;;;;;5097042;27;20095;-74
2022/04/07 08:36:51;;;;;;;3.83;0.70;;;7.70;99.90;;;;;;5082161;27;20477;-74
2022/04/07 08:39:17;;;;;;;4.68;0.70;;;7.80;99.90;;;;;;5098629;27;20113;-76
2022/04/07 08:41:44;;;;;;;3.33;0.70;;;7.90;99.90;;;;;;5098423;27;20085;-75
2022/04/07 08:44:09;;;;;;;4.30;1.05;;;7.90;99.90;;;;;;5082077;27;20042;-77
2022/04/07 08:46:35;;;;;;;4.25;0.80;;;8.00;99.90;;;;;;5115098;27;20035;-75
2022/04/07 08:49:02;;;;;;;5.65;1.27;;;8.00;99.90;;;;;;5081895;28;20035;-75
2022/04/07 08:51:28;;;;;;;8.68;1.00;;;8.10;99.90;;;;;;5064716;27;20043;-75
2022/04/07 08:53:54;;;;;;;10.65;1.20;;;8.20;99.90;;;;;;5098423;27;20082;-75
2022/04/07 08:56:19;;;;;;;7.13;1.00;;;8.20;99.90;;;;;;5098141;28;20090;-74
2022/04/07 08:58:45;;;;;;;5.10;1.00;;;8.30;99.90;;;;;;5098115;27;20070;-74
2022/04/07 09:01:11;;;;;;;6.90;1.15;;;8.40;99.90;;;;;;5065040;27;20487;-75
2022/04/07 09:03:36;;;;;;;6.97;1.10;;;8.50;99.90;;;;;;5115044;27;20054;-75
2022/04/07 09:06:03;;;;;;;6.10;1.38;;;8.60;99.90;;;;;;5081835;28;20047;-76
2022/04/07 09:08:36;;;;;;;6.72;1.27;;;8.70;99.90;;;;;;5080952;28;20121;-74
2022/04/07 09:11:03;;;;;;;5.55;1.33;;;8.70;99.90;;;;;;5099374;28;20050;-75
2022/04/07 09:13:30;;;;;;;5.82;1.20;;;8.90;99.90;;;;;;5097667;28;20039;-75
2022/04/07 09:15:56;;;;;;;10.07;1.38;;;8.90;99.90;;;;;;5098510;28;20047;-75
2022/04/07 09:37:26;;;;;;;8.20;1.50;;;9.50;99.90;;;;;;5150562;27;1292951;-74
2022/04/07 09:40:14;;;;;;;12.85;2.53;;;9.60;99.90;;;;;;5119458;27;20065;-78
2022/04/07 09:42:43;;;;;;;9.15;1.73;;;9.70;99.90;;;;;;5119647;27;20094;-72
2022/04/07 09:45:13;;;;;;;5.82;1.63;;;9.90;99.90;;;;;;5103237;27;20050;-72
2022/04/07 09:47:43;;;;;;;11.38;1.90;;;9.90;99.90;;;;;;5120331;27;20043;-72
2022/04/07 09:50:31;;;;;;;12.15;2.13;;;10.00;99.90;;;;;;5136687;27;20039;-73
2022/04/07 09:53:03;;;;;;;12.82;1.88;;;10.00;99.90;;;;;;5137649;27;20042;-72
2022/04/07 09:55:36;;;;;;;8.75;1.95;;;9.90;99.90;;;;;;5119500;27;20070;-72
2022/04/07 09:58:06;;;;;;;8.23;1.85;;;9.90;99.90;;;;;;5102603;27;20049;-73
2022/04/07 10:00:38;;;;;;;12.02;2.20;;;9.90;99.90;;;;;;5103102;27;20069;-74
2022/04/07 10:03:04;;;;;;;8.63;1.77;;;9.90;99.90;;;;;;5121267;27;20046;-73
2022/04/07 10:05:30;;;;;;;12.57;2.10;;;10.00;99.90;;;;;;5136561;27;20125;-72
2022/04/07 10:07:59;;;;;;;10.85;2.25;;;10.00;99.90;;;;;;5136351;27;20125;-72
2022/04/07 10:10:25;;;;;;;11.73;2.13;;;10.10;99.90;;;;;;5101950;27;20516;-72
2022/04/07 10:12:51;;;;;;;8.70;1.70;;;10.10;99.90;;;;;;5118586;27;20038;-72
2022/04/07 10:15:19;;;;;;;15.80;2.15;;;10.10;99.90;;;;;;5118805;27;20034;-72
2022/04/07 10:17:45;;;;;;;11.90;2.15;;;10.10;99.90;;;;;;5118367;27;20034;-72
2022/04/07 10:20:12;;;;;;;8.38;2.13;;;10.00;99.90;;;;;;5118875;27;20090;-72
2022/04/07 10:22:57;;;;;;;16.13;2.13;;;9.90;99.90;;;;;;5118826;27;20045;-73
2022/04/07 10:25:23;;;;;;;7.85;2.00;;;9.90;99.90;;;;;;5137561;27;20370;-72
2022/04/07 10:27:54;;;;;;;10.98;2.80;;;9.80;99.90;;;;;;5101467;27;20034;-72
2022/04/07 10:30:20;;;;;;;11.85;1.90;;;9.80;99.90;;;;;;5118973;27;20492;-72
2022/04/07 10:32:52;;;;;;;7.93;1.75;;;9.80;99.90;;;;;;5135531;27;20050;-72
2022/04/07 10:35:31;;;;;;;10.55;2.40;;;10.00;99.90;;;;;;5136640;27;20470;-72
2022/04/07 10:38:01;;;;;;;12.23;2.03;;;10.10;99.90;;;;;;5152357;27;20043;-72
2022/04/07 10:40:48;;;;;;;10.80;2.15;;;10.10;99.90;;;;;;5118861;27;20049;-72
2022/04/07 10:43:14;;;;;;;8.73;1.70;;;10.10;99.90;;;;;;5137355;27;20046;-72
2022/04/07 10:45:50;;;;;;;10.07;1.88;;;10.00;99.90;;;;;;5152587;27;20042;-73
2022/04/07 10:48:29;;;;;;;13.20;2.45;;;9.90;99.90;;;;;;5092061;27;20137;-73
2022/04/07 10:50:55;;;;;;;9.32;1.98;;;9.80;99.90;;;;;;5121562;27;20054;-72
2022/04/07 10:53:22;;;;;;;13.35;2.20;;;9.90;99.90;;;;;;5138873;27;20050;-73
2022/04/07 10:56:01;;;;;;;15.07;2.97;;;10.00;99.90;;;;;;5138346;27;20089;-73
2022/04/07 10:58:46;;;;;;;10.88;2.50;;;10.10;99.90;;;;;;5104719;27;20042;-73
2022/04/07 11:01:30;;;;;;;13.05;1.90;;;10.00;99.90;;;;;;5104680;27;20082;-73
2022/04/07 11:04:21;;;;;;;14.10;2.08;;;9.80;99.90;;;;;;5120814;27;20522;-73
2022/04/07 11:07:11;;;;;;;9.55;1.92;;;9.60;99.90;;;;;;5138280;27;20488;-73
2022/04/07 11:09:55;;;;;;;12.85;2.13;;;9.50;99.90;;;;;;5138628;27;20043;-73
2022/04/07 11:12:22;;;;;;;11.52;2.28;;;9.40;99.90;;;;;;5156920;27;20053;-72
2022/04/07 11:14:48;;;;;;;12.30;2.67;;;9.40;99.90;;;;;;5138241;27;20050;-72
2022/04/07 11:17:27;;;;;;;16.05;2.83;;;9.50;99.90;;;;;;5104248;27;20213;-72
2022/04/07 11:20:19;;;;;;;14.50;2.83;;;9.70;99.90;;;;;;5088952;27;20143;-72
2022/04/07 11:23:13;;;;;;;19.42;3.30;;;9.80;99.90;;;;;;5107750;27;20051;-72
2022/04/07 11:25:43;;;;;;;14.45;3.10;;;10.00;99.90;;;;;;5123282;27;20043;-72
2022/04/07 11:28:17;;;;;;;16.00;2.70;;;10.10;99.90;;;;;;5120890;27;20042;-72
2022/04/07 11:30:49;;;;;;;12.68;2.97;;;10.30;99.90;;;;;;5104234;27;20125;-77
2022/04/07 11:33:27;;;;;;;13.73;2.85;;;10.40;99.90;;;;;;5138013;27;20043;-72
2022/04/07 11:35:58;;;;;;;12.98;2.72;;;10.40;99.90;;;;;;5137433;27;20043;-72
2022/04/07 11:38:32;;;;;;;14.52;2.50;;;10.50;99.90;;;;;;5137931;27;20054;-72
2022/04/07 11:41:11;;;;;;;16.92;2.55;;;10.50;99.90;;;;;;5137435;27;20456;-73
2022/04/07 11:43:47;;;;;;;14.25;2.78;;;10.50;99.90;;;;;;5138448;27;20113;-73
2022/04/07 11:46:13;;;;;;;16.02;2.58;;;10.50;99.90;;;;;;5137556;27;20527;-73
2022/04/07 11:48:40;;;;;;;12.77;2.80;;;10.50;99.90;;;;;;5138025;27;20091;-73
2022/04/07 11:51:17;;;;;;;14.10;2.28;;;10.60;99.90;;;;;;5120408;27;20062;-72
2022/04/07 11:53:52;;;;;;;12.57;2.55;;;10.60;99.90;;;;;;5138200;27;20034;-73
2022/04/07 11:56:24;;;;;;;11.43;2.25;;;10.60;99.90;;;;;;5103812;27;20104;-73
2022/04/07 11:58:54;;;;;;;11.27;2.67;;;10.50;99.90;;;;;;5102735;27;20050;-73
2022/04/07 12:01:20;;;;;;;11.63;2.28;;;10.60;99.90;;;;;;5120524;27;20081;-73
2022/04/07 12:03:53;;;;;;;9.95;2.38;;;10.60;99.90;;;;;;5137683;27;20051;-73
2022/04/07 12:06:26;;;;;;;12.57;2.58;;;10.70;99.90;;;;;;5137776;27;20042;-73
2022/04/07 12:08:54;;;;;;;11.15;2.25;;;10.80;99.90;;;;;;5103181;27;20374;-73
2022/04/07 12:11:20;;;;;;;9.65;2.00;;;10.90;99.90;;;;;;5120508;27;20074;-74
2022/04/07 12:13:49;;;;;;;13.05;2.55;;;10.90;99.90;;;;;;5120248;27;20142;-73
2022/04/07 12:16:15;;;;;;;15.20;2.67;;;11.00;99.90;;;;;;5137649;27;20412;-73
2022/04/07 12:18:40;;;;;;;15.05;2.63;;;11.10;99.90;;;;;;5120251;27;20034;-73
2022/04/07 12:21:07;;;;;;;13.73;2.67;;;11.20;99.90;;;;;;5119683;27;20555;-73
2022/04/07 12:23:32;;;;;;;11.95;2.50;;;11.20;99.90;;;;;;5103226;27;20031;-73
2022/04/07 12:25:59;;;;;;;11.60;2.33;;;11.40;99.90;;;;;;5102608;27;20050;-73
2022/04/07 12:28:32;;;;;;;10.52;2.13;;;11.50;99.90;;;;;;5137074;27;20038;-73
2022/04/07 12:30:58;;;;;;;11.88;2.53;;;11.40;98.80;;;;;;5119639;27;20077;-74
2022/04/07 12:33:40;;;;;;;13.10;2.50;;;11.40;99.90;;;;;;5136504;27;20074;-73
2022/04/07 12:36:32;;;;;;;3.45;1.10;;;11.20;99.90;;;;;;5098602;27;20130;-73
2022/04/07 12:39:05;;;;;;;6.13;1.02;;;10.90;99.90;;;;;;5122616;27;20504;-73
2022/04/07 12:41:54;;;;;;;4.78;1.00;;;10.50;99.90;;;;;;5099751;27;20137;-73
2022/04/07 12:44:26;;;;;;;5.40;0.80;;;10.10;99.90;;;;;;5100285;27;20046;-73
2022/04/07 12:47:01;;;;;;;6.30;1.08;;;9.90;99.90;;;;;;5100242;27;20047;-73
2022/04/07 12:49:31;;;;;;;5.90;1.73;;;9.60;99.90;;;;;;5083653;27;20051;-73
2022/04/07 12:52:06;;;;;;;4.03;1.13;;;9.40;99.90;;;;;;5099068;27;20083;-74
2022/04/07 12:54:32;;;;;;;6.57;1.27;;;9.00;99.90;;;;;;5099230;27;20125;-74
2022/04/07 12:57:11;;;;;;;4.05;0.70;;;8.60;99.90;;;;;;5080945;27;20131;-75
2022/04/07 12:59:52;;;;;;;2.47;0.70;;;8.30;99.90;;;;;;5132965;27;20054;-73
2022/04/07 13:02:17;;;;;;;3.53;0.70;;;8.30;99.90;;;;;;5083367;27;20047;-73
2022/04/07 13:04:54;;;;;;;4.35;0.90;;;8.50;99.90;;;;;;5116518;27;20042;-74
2022/04/07 13:07:21;;;;;;;8.00;1.45;;;8.60;99.90;;;;;;5132553;27;20042;-73
2022/04/07 13:09:47;;;;;;;6.78;1.25;;;8.60;99.90;;;;;;5098647;27;20047;-73
2022/04/07 13:12:16;;;;;;;7.35;1.58;;;8.70;99.90;;;;;;5115586;27;20127;-73
2022/04/07 13:14:43;;;;;;;7.80;1.80;;;8.60;99.90;;;;;;5116162;27;20379;-74